createdAt,value
2019-05-28T00:00:01.789Z,13.92
2019-05-28T00:00:52.917Z,13.90
2019-05-28T00:01:51.893Z,13.87
2019-05-28T00:02:51.927Z,13.83
2019-05-28T00:03:51.885Z,13.79
2019-05-28T00:04:51.858Z,13.79
2019-05-28T00:05:51.854Z,13.79
2019-05-28T00:06:51.853Z,13.83
2019-05-28T00:07:51.844Z,13.83
2019-05-28T00:08:51.867Z,13.86
2019-05-28T00:09:51.828Z,13.86
2019-05-28T00:10:51.792Z,13.87
2019-05-28T00:11:51.811Z,13.86
2019-05-28T00:12:51.778Z,13.85
2019-05-28T00:13:51.770Z,13.83
2019-05-28T00:14:51.797Z,13.79
2019-05-28T00:15:51.762Z,13.77
2019-05-28T00:16:51.729Z,13.77
2019-05-28T00:17:51.722Z,13.77
2019-05-28T00:18:51.726Z,13.78
2019-05-28T00:19:51.711Z,13.78
2019-05-28T00:20:51.716Z,13.74
2019-05-28T00:21:51.699Z,13.72
2019-05-28T00:22:51.679Z,13.71
2019-05-28T00:23:51.666Z,13.71
2019-05-28T00:24:51.650Z,13.71
2019-05-28T00:25:51.667Z,13.70
2019-05-28T00:26:51.636Z,13.70
2019-05-28T00:27:51.616Z,13.70
2019-05-28T00:28:51.608Z,13.70
2019-05-28T00:29:51.612Z,13.68
2019-05-28T00:30:51.629Z,13.70
2019-05-28T00:31:51.577Z,13.70
2019-05-28T00:32:51.562Z,13.71
2019-05-28T00:33:51.566Z,13.71
2019-05-28T00:34:51.554Z,13.72
2019-05-28T00:35:51.545Z,13.72
2019-05-28T00:36:51.541Z,13.74
2019-05-28T00:37:51.555Z,13.72
2019-05-28T00:38:51.498Z,13.72
2019-05-28T00:39:51.492Z,13.72
2019-05-28T00:40:51.474Z,13.70
2019-05-28T00:41:51.503Z,13.67
2019-05-28T00:42:51.464Z,13.62
2019-05-28T00:43:51.446Z,13.63
2019-05-28T00:44:51.447Z,13.65
2019-05-28T00:45:51.420Z,13.63
2019-05-28T00:46:51.424Z,13.65
2019-05-28T00:47:51.422Z,13.65
2019-05-28T00:48:51.388Z,13.67
2019-05-28T00:49:51.383Z,13.67
2019-05-28T00:50:51.374Z,13.67
2019-05-28T00:51:51.394Z,13.70
2019-05-28T00:52:51.364Z,13.70
2019-05-28T00:53:51.349Z,13.71
2019-05-28T00:54:51.322Z,13.70
2019-05-28T00:55:51.313Z,13.70
2019-05-28T00:56:51.354Z,13.68
2019-05-28T00:57:51.330Z,13.71
2019-05-28T00:58:51.296Z,13.72
2019-05-28T00:59:51.278Z,13.74
2019-05-28T01:00:51.286Z,13.74
2019-05-28T01:01:51.289Z,13.72
2019-05-28T01:02:51.258Z,13.74
2019-05-28T01:03:51.256Z,13.74
2019-05-28T01:04:51.223Z,13.75
2019-05-28T01:05:51.211Z,13.77
2019-05-28T01:06:51.217Z,13.77
2019-05-28T01:07:51.168Z,13.77
2019-05-28T01:08:51.189Z,13.75
2019-05-28T01:09:51.171Z,13.74
2019-05-28T01:10:51.163Z,13.74
2019-05-28T01:11:51.145Z,13.71
2019-05-28T01:12:51.147Z,13.70
2019-05-28T01:13:51.126Z,13.71
2019-05-28T01:14:51.151Z,13.70
2019-05-28T01:15:51.114Z,13.70
2019-05-28T01:16:51.118Z,13.70
2019-05-28T01:17:51.084Z,13.70
2019-05-28T01:18:51.113Z,13.71
2019-05-28T01:19:51.062Z,13.72
2019-05-28T01:20:51.062Z,13.71
2019-05-28T01:21:51.046Z,13.70
2019-05-28T01:22:51.047Z,13.71
2019-05-28T01:23:51.004Z,13.72
2019-05-28T01:24:51.020Z,13.71
2019-05-28T01:25:50.995Z,13.71
2019-05-28T01:26:50.988Z,13.71
2019-05-28T01:27:50.963Z,13.68
2019-05-28T01:28:50.956Z,13.67
2019-05-28T01:29:50.979Z,13.63
2019-05-28T01:30:57.586Z,13.63
2019-05-28T01:31:51.924Z,13.65
2019-05-28T01:32:50.904Z,13.62
2019-05-28T01:33:50.916Z,13.60
2019-05-28T01:34:50.892Z,13.60
2019-05-28T01:35:50.930Z,13.59
2019-05-28T01:36:50.871Z,13.57
2019-05-28T01:37:50.870Z,13.56
2019-05-28T01:38:50.853Z,13.57
2019-05-28T01:39:50.840Z,13.56
2019-05-28T01:40:50.820Z,13.54
2019-05-28T01:41:50.837Z,13.52
2019-05-28T01:42:50.826Z,13.50
2019-05-28T01:43:50.836Z,13.46
2019-05-28T01:44:50.809Z,13.46
2019-05-28T01:45:50.780Z,13.46
2019-05-28T01:46:50.806Z,13.42
2019-05-28T01:47:50.753Z,13.41
2019-05-28T01:48:50.740Z,13.41
2019-05-28T01:49:50.716Z,13.37
2019-05-28T01:50:50.734Z,13.37
2019-05-28T01:51:50.737Z,13.37
2019-05-28T01:52:50.699Z,13.28
2019-05-28T01:53:50.689Z,13.25
2019-05-28T01:54:50.683Z,13.22
2019-05-28T01:55:50.658Z,13.18
2019-05-28T01:56:50.698Z,13.13
2019-05-28T01:57:50.652Z,13.04
2019-05-28T01:58:50.650Z,12.98
2019-05-28T01:59:50.615Z,12.91
2019-05-28T02:00:50.629Z,12.82
2019-05-28T02:01:50.597Z,12.76
2019-05-28T02:02:50.659Z,12.68
2019-05-28T02:03:50.625Z,12.62
2019-05-28T02:04:50.817Z,12.54
2019-05-28T02:05:50.567Z,12.47
2019-05-28T02:06:50.555Z,12.42
2019-05-28T02:07:50.562Z,12.35
2019-05-28T02:08:50.523Z,12.27
2019-05-28T02:09:50.517Z,12.21
2019-05-28T02:10:50.519Z,12.13
2019-05-28T02:11:50.494Z,12.04
2019-05-28T02:12:50.501Z,11.95
2019-05-28T02:13:50.475Z,11.78
2019-05-28T02:14:50.462Z,11.72
2019-05-28T02:15:50.455Z,11.69
2019-05-28T02:16:50.555Z,11.65
2019-05-28T02:17:50.425Z,11.60
2019-05-28T02:18:50.432Z,11.52
2019-05-28T02:19:50.408Z,11.47
2019-05-28T02:20:50.433Z,11.41
2019-05-28T02:21:50.381Z,11.35
2019-05-28T02:22:50.373Z,11.29
2019-05-28T02:23:50.409Z,11.25
2019-05-28T02:24:50.369Z,11.19
2019-05-28T02:25:50.344Z,11.15
2019-05-28T02:26:50.334Z,11.14
2019-05-28T02:27:50.323Z,11.14
2019-05-28T02:28:50.303Z,11.12
2019-05-28T02:29:50.307Z,11.11
2019-05-28T02:30:50.314Z,11.07
2019-05-28T02:31:50.276Z,11.05
2019-05-28T02:32:50.261Z,11.04
2019-05-28T02:33:50.250Z,11.00
2019-05-28T02:34:50.256Z,10.97
2019-05-28T02:35:50.336Z,10.93
2019-05-28T02:36:50.217Z,10.90
2019-05-28T02:37:50.219Z,10.86
2019-05-28T02:38:50.209Z,10.82
2019-05-28T02:39:50.205Z,10.79
2019-05-28T02:40:50.183Z,10.75
2019-05-28T02:41:50.165Z,10.72
2019-05-28T02:42:50.159Z,10.72
2019-05-28T02:43:50.162Z,10.68
2019-05-28T02:44:50.125Z,10.67
2019-05-28T02:45:50.150Z,10.63
2019-05-28T02:46:50.115Z,10.60
2019-05-28T02:47:50.155Z,10.57
2019-05-28T02:48:50.088Z,10.51
2019-05-28T02:49:50.085Z,10.48
2019-05-28T02:50:50.085Z,10.46
2019-05-28T02:51:50.135Z,10.42
2019-05-28T02:52:50.044Z,10.41
2019-05-28T02:53:50.043Z,10.35
2019-05-28T02:54:50.031Z,10.35
2019-05-28T02:55:50.011Z,10.34
2019-05-28T02:56:50.048Z,10.31
2019-05-28T02:57:50.034Z,10.30
2019-05-28T02:58:49.980Z,10.25
2019-05-28T02:59:49.970Z,10.23
2019-05-28T03:00:49.962Z,10.22
2019-05-28T03:01:49.967Z,10.19
2019-05-28T03:02:49.982Z,10.15
2019-05-28T03:03:49.940Z,10.09
2019-05-28T03:04:49.931Z,10.05
2019-05-28T03:05:49.937Z,10.10
2019-05-28T03:06:49.914Z,10.15
2019-05-28T03:07:49.892Z,10.16
2019-05-28T03:08:49.915Z,10.16
2019-05-28T03:09:49.868Z,10.16
2019-05-28T03:11:02.277Z,10.13
2019-05-28T03:11:50.835Z,10.09
2019-05-28T03:12:49.842Z,10.05
2019-05-28T03:13:49.860Z,10.04
2019-05-28T03:14:49.818Z,10.01
2019-05-28T03:15:49.812Z,10.02
2019-05-28T03:16:49.800Z,9.98
2019-05-28T03:17:49.812Z,9.97
2019-05-28T03:18:49.780Z,9.97
2019-05-28T03:19:49.786Z,9.97
2019-05-28T03:20:49.756Z,9.95
2019-05-28T03:21:49.745Z,9.94
2019-05-28T03:22:49.725Z,9.92
2019-05-28T03:23:49.727Z,9.91
2019-05-28T03:24:49.706Z,9.87
2019-05-28T03:25:49.751Z,9.87
2019-05-28T03:26:49.686Z,9.86
2019-05-28T03:27:49.683Z,9.86
2019-05-28T03:28:49.668Z,9.86
2019-05-28T03:29:49.642Z,9.86
2019-05-28T03:30:49.682Z,9.87
2019-05-28T03:32:07.237Z,9.86
2019-05-28T03:32:50.655Z,9.91
2019-05-28T03:33:49.601Z,9.95
2019-05-28T03:34:49.604Z,9.99
2019-05-28T03:35:49.619Z,9.99
2019-05-28T03:36:49.598Z,10.04
2019-05-28T03:37:49.568Z,10.09
2019-05-28T03:38:49.561Z,10.17
2019-05-28T03:39:49.565Z,10.37
2019-05-28T03:40:49.542Z,10.51
2019-05-28T03:41:49.566Z,10.64
2019-05-28T03:42:49.539Z,10.74
2019-05-28T03:43:49.505Z,10.81
2019-05-28T03:44:49.498Z,10.82
2019-05-28T03:45:49.489Z,10.86
2019-05-28T03:46:49.478Z,10.81
2019-05-28T03:47:49.464Z,10.82
2019-05-28T03:48:49.450Z,10.81
2019-05-28T03:49:49.436Z,10.81
2019-05-28T03:50:49.460Z,10.84
2019-05-28T03:51:49.429Z,10.81
2019-05-28T03:52:49.435Z,10.87
2019-05-28T03:53:49.402Z,10.92
2019-05-28T03:54:49.376Z,10.93
2019-05-28T03:55:49.431Z,10.94
2019-05-28T03:56:49.373Z,10.96
2019-05-28T03:57:49.369Z,11.02
2019-05-28T03:58:49.350Z,11.00
2019-05-28T03:59:49.343Z,10.99
2019-05-28T04:00:49.335Z,11.04
2019-05-28T04:01:49.357Z,11.07
2019-05-28T04:02:49.343Z,11.10
2019-05-28T04:03:49.281Z,11.14
2019-05-28T04:04:49.283Z,11.14
2019-05-28T04:05:49.292Z,11.15
2019-05-28T04:06:49.264Z,11.15
2019-05-28T04:07:49.250Z,11.15
2019-05-28T04:08:49.310Z,11.12
2019-05-28T04:09:49.232Z,11.18
2019-05-28T04:10:49.214Z,11.22
2019-05-28T04:11:49.207Z,11.23
2019-05-28T04:12:49.200Z,11.23
2019-05-28T04:13:49.200Z,11.25
2019-05-28T04:14:49.168Z,11.26
2019-05-28T04:15:49.160Z,11.26
2019-05-28T04:16:49.153Z,11.27
2019-05-28T04:17:49.156Z,11.29
2019-05-28T04:18:49.129Z,11.35
2019-05-28T04:19:49.135Z,11.32
2019-05-28T04:20:49.112Z,11.33
2019-05-28T04:21:49.097Z,11.30
2019-05-28T04:22:49.094Z,11.32
2019-05-28T04:23:49.116Z,11.35
2019-05-28T04:24:49.069Z,11.36
2019-05-28T04:25:49.066Z,11.35
2019-05-28T04:26:49.027Z,11.35
2019-05-28T04:27:49.034Z,11.36
2019-05-28T04:28:49.023Z,11.37
2019-05-28T04:29:49.039Z,11.37
2019-05-28T04:30:49.006Z,11.41
2019-05-28T04:31:48.994Z,11.47
2019-05-28T04:32:48.985Z,11.52
2019-05-28T04:33:48.966Z,11.59
2019-05-28T04:34:48.950Z,11.62
2019-05-28T04:35:49.004Z,11.63
2019-05-28T04:36:48.936Z,11.63
2019-05-28T04:37:48.927Z,11.63
2019-05-28T04:38:48.912Z,11.68
2019-05-28T04:39:48.910Z,11.70
2019-05-28T04:40:48.942Z,11.77
2019-05-28T04:41:48.877Z,11.80
2019-05-28T04:42:48.869Z,11.83
2019-05-28T04:43:48.846Z,11.86
2019-05-28T04:44:48.867Z,11.73
2019-05-28T04:45:48.869Z,11.65
2019-05-28T04:46:48.835Z,11.69
2019-05-28T04:47:48.824Z,11.77
2019-05-28T04:48:48.799Z,11.81
2019-05-28T04:49:48.789Z,11.78
2019-05-28T04:50:48.783Z,11.80
2019-05-28T04:51:48.791Z,11.94
2019-05-28T04:52:48.781Z,11.95
2019-05-28T04:53:48.741Z,11.97
2019-05-28T04:54:48.761Z,12.06
2019-05-28T04:55:48.745Z,12.13
2019-05-28T04:56:48.741Z,12.17
2019-05-28T04:57:48.707Z,12.27
2019-05-28T04:58:48.702Z,12.32
2019-05-28T04:59:48.689Z,12.42
2019-05-28T05:00:50.823Z,12.47
2019-05-28T05:01:48.671Z,12.49
2019-05-28T05:02:59.352Z,12.46
2019-05-28T05:03:49.649Z,12.55
2019-05-28T05:04:48.627Z,12.64
2019-05-28T05:05:48.623Z,12.72
2019-05-28T05:06:49.285Z,12.78
2019-05-28T05:07:48.629Z,12.76
2019-05-28T05:08:48.622Z,12.80
2019-05-28T05:09:49.322Z,12.76
2019-05-28T05:10:48.592Z,12.93
2019-05-28T05:11:48.557Z,13.04
2019-05-28T05:12:48.551Z,13.12
2019-05-28T05:13:48.567Z,13.15
2019-05-28T05:14:48.531Z,13.12
2019-05-28T05:15:48.506Z,13.09
2019-05-28T05:16:48.524Z,13.08
2019-05-28T05:17:48.487Z,13.18
2019-05-28T05:18:48.487Z,13.28
2019-05-28T05:19:48.495Z,13.28
2019-05-28T05:20:48.465Z,13.37
2019-05-28T05:21:48.455Z,13.41
2019-05-28T05:22:48.443Z,13.54
2019-05-28T05:23:48.440Z,13.68
2019-05-28T05:24:48.463Z,13.72
2019-05-28T05:25:48.411Z,13.71
2019-05-28T05:26:48.387Z,13.81
2019-05-28T05:27:48.392Z,13.89
2019-05-28T05:28:48.391Z,13.95
2019-05-28T05:29:48.414Z,13.95
2019-05-28T05:30:48.352Z,14.10
2019-05-28T05:31:48.339Z,14.08
2019-05-28T05:32:48.341Z,14.00
2019-05-28T05:33:48.310Z,14.07
2019-05-28T05:34:48.303Z,14.08
2019-05-28T05:35:48.360Z,14.17
2019-05-28T05:36:48.282Z,14.20
2019-05-28T05:37:49.463Z,14.18
2019-05-28T05:38:48.251Z,14.12
2019-05-28T05:39:49.260Z,14.07
2019-05-28T05:40:48.267Z,14.05
2019-05-28T05:41:48.224Z,14.10
2019-05-28T05:42:48.233Z,14.29
2019-05-28T05:43:48.209Z,14.29
2019-05-28T05:44:48.201Z,14.20
2019-05-28T05:45:48.250Z,14.20
2019-05-28T05:46:48.170Z,14.11
2019-05-28T05:47:48.160Z,14.14
2019-05-28T05:48:48.178Z,14.11
2019-05-28T05:49:48.150Z,14.11
2019-05-28T05:50:48.131Z,14.05
2019-05-28T05:51:49.228Z,13.99
2019-05-28T05:52:48.103Z,13.83
2019-05-28T05:53:48.094Z,13.72
2019-05-28T05:54:48.105Z,13.89
2019-05-28T05:55:48.092Z,13.96
2019-05-28T05:56:48.109Z,14.22
2019-05-28T05:57:48.057Z,14.23
2019-05-28T05:58:48.038Z,14.14
2019-05-28T05:59:48.062Z,14.22
2019-05-28T06:00:48.062Z,14.14
2019-05-28T06:01:48.062Z,14.23
2019-05-28T06:02:48.023Z,14.41
2019-05-28T06:03:48.004Z,14.73
2019-05-28T06:04:47.987Z,14.97
2019-05-28T06:05:47.975Z,15.42
2019-05-28T06:06:47.986Z,15.67
2019-05-28T06:07:47.986Z,15.98
2019-05-28T06:08:47.954Z,15.90
2019-05-28T06:09:47.949Z,15.73
2019-05-28T06:10:47.957Z,15.42
2019-05-28T06:11:47.924Z,15.06
2019-05-28T06:12:47.949Z,15.19
2019-05-28T06:13:47.896Z,14.96
2019-05-28T06:14:47.909Z,14.68
2019-05-28T06:15:47.864Z,14.97
2019-05-28T06:16:47.850Z,15.27
2019-05-28T06:17:47.846Z,15.42
2019-05-28T06:18:47.868Z,15.54
2019-05-28T06:19:47.912Z,15.57
2019-05-28T06:20:47.924Z,15.61
2019-05-28T06:21:47.815Z,15.73
2019-05-28T06:22:47.793Z,15.27
2019-05-28T06:23:47.839Z,15.11
2019-05-28T06:24:47.800Z,15.11
2019-05-28T06:25:47.751Z,14.96
2019-05-28T06:26:47.772Z,15.00
2019-05-28T06:27:47.792Z,14.89
2019-05-28T06:28:47.735Z,14.86
2019-05-28T06:29:47.748Z,14.81
2019-05-28T06:30:47.714Z,14.62
2019-05-28T06:31:47.720Z,14.72
2019-05-28T06:32:47.708Z,14.63
2019-05-28T06:33:56.969Z,14.47
2019-05-28T06:34:48.715Z,13.99
2019-05-28T06:35:47.667Z,13.81
2019-05-28T06:36:47.640Z,13.93
2019-05-28T06:37:47.637Z,13.92
2019-05-28T06:38:47.602Z,13.95
2019-05-28T06:39:47.600Z,14.11
2019-05-28T06:40:47.610Z,14.18
2019-05-28T06:41:47.576Z,14.20
2019-05-28T06:42:47.560Z,14.14
2019-05-28T06:43:47.577Z,14.40
2019-05-28T06:44:47.566Z,14.47
2019-05-28T06:45:47.550Z,14.62
2019-05-28T06:46:47.542Z,14.92
2019-05-28T06:47:47.513Z,15.07
2019-05-28T06:48:47.503Z,15.40
2019-05-28T06:49:47.505Z,15.90
2019-05-28T06:50:47.529Z,16.39
2019-05-28T06:51:47.525Z,16.72
2019-05-28T06:52:47.480Z,16.72
2019-05-28T06:53:47.464Z,17.16
2019-05-28T06:54:47.439Z,17.56
2019-05-28T06:55:47.454Z,17.87
2019-05-28T06:56:47.490Z,17.94
2019-05-28T06:57:47.458Z,17.33
2019-05-28T06:58:47.475Z,17.11
2019-05-28T06:59:47.419Z,17.49
2019-05-28T07:00:47.369Z,18.16
2019-05-28T07:01:47.378Z,17.79
2019-05-28T07:02:47.459Z,17.19
2019-05-28T07:03:47.369Z,17.39
2019-05-28T07:04:47.397Z,17.70
2019-05-28T07:06:03.355Z,18.43
2019-05-28T07:06:48.356Z,18.60
2019-05-28T07:07:47.304Z,18.90
2019-05-28T07:08:47.367Z,19.18
2019-05-28T07:09:47.285Z,19.21
2019-05-28T07:10:57.156Z,19.73
2019-05-28T07:11:48.281Z,20.28
2019-05-28T07:12:47.236Z,20.70
2019-05-28T07:13:47.264Z,20.28
2019-05-28T07:14:47.221Z,19.88
2019-05-28T07:15:47.205Z,20.26
2019-05-28T07:16:53.159Z,20.82
2019-05-28T07:17:48.217Z,20.78
2019-05-28T07:18:47.205Z,20.87
2019-05-28T07:19:47.176Z,20.96
2019-05-28T07:20:47.207Z,21.09
2019-05-28T07:21:47.143Z,21.02
2019-05-28T07:22:47.143Z,21.12
2019-05-28T07:23:47.207Z,19.96
2019-05-28T07:24:47.142Z,19.69
2019-05-28T07:25:47.109Z,20.09
2019-05-28T07:26:47.141Z,20.02
2019-05-28T07:27:47.079Z,19.96
2019-05-28T07:28:47.075Z,20.04
2019-05-28T07:29:47.087Z,20.51
2019-05-28T07:30:47.056Z,20.85
2019-05-28T07:31:47.059Z,20.88
2019-05-28T07:32:47.048Z,21.06
2019-05-28T07:33:47.033Z,21.83
2019-05-28T07:34:47.031Z,20.97
2019-05-28T07:35:47.007Z,21.18
2019-05-28T07:36:46.993Z,21.06
2019-05-28T07:37:46.993Z,21.92
2019-05-28T07:38:46.980Z,22.11
2019-05-28T07:39:46.963Z,22.65
2019-05-28T07:40:46.939Z,22.91
2019-05-28T07:41:46.936Z,22.25
2019-05-28T07:42:46.939Z,20.77
2019-05-28T07:43:46.923Z,19.91
2019-05-28T07:44:46.935Z,19.71
2019-05-28T07:45:46.894Z,19.88
2019-05-28T07:46:46.895Z,19.34
2019-05-28T07:47:46.884Z,18.66
2019-05-28T07:48:46.860Z,18.93
2019-05-28T07:49:46.863Z,19.02
2019-05-28T07:50:46.867Z,18.60
2019-05-28T07:51:46.845Z,18.38
2019-05-28T07:52:46.834Z,17.92
2019-05-28T07:53:46.820Z,17.63
2019-05-28T07:54:46.794Z,17.64
2019-05-28T07:55:46.868Z,17.86
2019-05-28T07:56:46.786Z,17.63
2019-05-28T07:57:46.774Z,17.46
2019-05-28T07:58:46.765Z,17.19
2019-05-28T07:59:46.755Z,17.16
2019-05-28T08:00:46.747Z,17.24
2019-05-28T08:01:46.743Z,16.78
2019-05-28T08:02:46.705Z,16.83
2019-05-28T08:03:46.736Z,17.12
2019-05-28T08:04:47.905Z,17.14
2019-05-28T08:05:46.696Z,17.02
2019-05-28T08:06:54.757Z,17.24
2019-05-28T08:07:47.677Z,17.31
2019-05-28T08:08:46.645Z,17.15
2019-05-28T08:09:46.661Z,17.20
2019-05-28T08:10:46.635Z,17.01
2019-05-28T08:11:46.613Z,16.97
2019-05-28T08:12:46.633Z,17.09
2019-05-28T08:13:46.626Z,16.35
2019-05-28T08:14:47.209Z,16.42
2019-05-28T08:15:47.171Z,16.41
2019-05-28T08:16:52.635Z,16.49
2019-05-28T08:17:47.582Z,16.46
2019-05-28T08:18:46.548Z,16.49
2019-05-28T08:19:46.661Z,16.76
2019-05-28T08:20:47.514Z,16.78
2019-05-28T08:21:47.962Z,16.65
2019-05-28T08:22:47.645Z,16.43
2019-05-28T08:23:48.067Z,16.21
2019-05-28T08:24:47.685Z,16.42
2019-05-28T08:25:48.210Z,16.47
2019-05-28T08:26:47.870Z,16.61
2019-05-28T08:27:46.477Z,16.97
2019-05-28T08:28:46.462Z,17.44
2019-05-28T08:29:46.460Z,17.22
2019-05-28T08:30:46.418Z,16.93
2019-05-28T08:31:46.396Z,16.84
2019-05-28T08:32:46.393Z,16.79
2019-05-28T08:33:46.420Z,17.14
2019-05-28T08:35:02.126Z,17.52
2019-05-28T08:35:47.374Z,17.38
2019-05-28T08:37:01.784Z,17.36
2019-05-28T08:37:47.355Z,17.34
2019-05-28T08:38:46.384Z,17.49
2019-05-28T08:39:46.312Z,17.65
2019-05-28T08:40:46.334Z,17.76
2019-05-28T08:41:46.298Z,17.89
2019-05-28T08:42:46.313Z,18.01
2019-05-28T08:43:46.270Z,17.74
2019-05-28T08:44:46.281Z,17.26
2019-05-28T08:45:46.258Z,16.84
2019-05-28T08:46:46.264Z,16.99
2019-05-28T08:47:46.236Z,17.05
2019-05-28T08:48:46.241Z,17.11
2019-05-28T08:49:46.256Z,17.14
2019-05-28T08:50:46.197Z,16.91
2019-05-28T08:51:46.192Z,17.09
2019-05-28T08:52:46.176Z,17.12
2019-05-28T08:53:46.182Z,17.33
2019-05-28T08:54:46.150Z,17.39
2019-05-28T08:55:46.197Z,17.48
2019-05-28T08:56:46.145Z,17.68
2019-05-28T08:57:46.119Z,17.39
2019-05-28T08:58:46.118Z,17.67
2019-05-28T08:59:46.194Z,18.11
2019-05-28T09:00:46.112Z,18.38
2019-05-28T09:01:46.076Z,18.62
2019-05-28T09:02:46.100Z,18.77
2019-05-28T09:03:46.059Z,18.78
2019-05-28T09:04:46.075Z,18.49
2019-05-28T09:05:46.068Z,18.33
2019-05-28T09:06:46.056Z,17.72
2019-05-28T09:07:46.041Z,18.01
2019-05-28T09:08:46.193Z,18.34
2019-05-28T09:09:45.985Z,18.60
2019-05-28T09:10:46.062Z,18.50
2019-05-28T09:11:46.116Z,18.63
2019-05-28T09:12:45.994Z,18.60
2019-05-28T09:13:45.959Z,18.92
2019-05-28T09:14:55.912Z,19.40
2019-05-28T09:15:46.982Z,19.81
2019-05-28T09:16:46.232Z,19.59
2019-05-28T09:17:45.926Z,18.95
2019-05-28T09:18:45.941Z,18.95
2019-05-28T09:19:45.886Z,19.21
2019-05-28T09:20:45.911Z,19.39
2019-05-28T09:21:45.858Z,19.33
2019-05-28T09:22:45.875Z,19.31
2019-05-28T09:23:45.852Z,19.00
2019-05-28T09:24:46.087Z,19.14
2019-05-28T09:25:45.877Z,18.47
2019-05-28T09:26:45.801Z,18.65
2019-05-28T09:27:45.815Z,18.44
2019-05-28T09:28:45.976Z,18.71
2019-05-28T09:29:45.849Z,18.96
2019-05-28T09:30:45.798Z,19.49
2019-05-28T09:31:45.762Z,19.16
2019-05-28T09:32:45.817Z,18.89
2019-05-28T09:33:45.769Z,18.93
2019-05-28T09:34:45.746Z,19.04
2019-05-28T09:36:03.792Z,19.07
2019-05-28T09:36:46.963Z,18.75
2019-05-28T09:37:45.688Z,18.62
2019-05-28T09:38:45.863Z,18.23
2019-05-28T09:39:45.686Z,18.11
2019-05-28T09:40:50.370Z,18.40
2019-05-28T09:41:46.676Z,18.65
2019-05-28T09:42:45.676Z,18.93
2019-05-28T09:43:45.633Z,19.09
2019-05-28T09:44:45.648Z,18.56
2019-05-28T09:45:45.615Z,18.81
2019-05-28T09:46:45.628Z,18.41
2019-05-28T09:47:45.603Z,18.55
2019-05-28T09:48:45.568Z,18.83
2019-05-28T09:49:45.572Z,18.55
2019-05-28T09:50:45.569Z,18.49
2019-05-28T09:51:45.547Z,18.83
2019-05-28T09:52:54.448Z,19.63
2019-05-28T09:53:46.532Z,19.70
2019-05-28T09:54:45.525Z,19.70
2019-05-28T09:55:45.515Z,20.44
2019-05-28T09:56:45.521Z,21.14
2019-05-28T09:57:47.769Z,21.18
2019-05-28T09:58:45.497Z,20.74
2019-05-28T09:59:45.450Z,20.99
2019-05-28T10:00:57.356Z,21.43
2019-05-28T10:01:46.456Z,22.17
2019-05-28T10:02:45.449Z,22.55
2019-05-28T10:03:45.425Z,21.67
2019-05-28T10:04:49.732Z,21.98
2019-05-28T10:06:01.737Z,21.52
2019-05-28T10:06:46.396Z,21.11
2019-05-28T10:07:45.375Z,21.33
2019-05-28T10:08:45.380Z,20.85
2019-05-28T10:09:45.397Z,20.50
2019-05-28T10:10:45.337Z,20.19
2019-05-28T10:11:45.375Z,20.39
2019-05-28T10:12:45.331Z,20.25
2019-05-28T10:13:45.333Z,20.37
2019-05-28T10:14:45.300Z,20.51
2019-05-28T10:15:45.318Z,20.41
2019-05-28T10:16:45.303Z,20.32
2019-05-28T10:17:45.258Z,20.04
2019-05-28T10:18:45.265Z,20.56
2019-05-28T10:19:45.257Z,21.91
2019-05-28T10:20:45.239Z,21.99
2019-05-28T10:21:45.269Z,21.69
2019-05-28T10:22:45.243Z,22.11
2019-05-28T10:23:45.206Z,21.91
2019-05-28T10:24:45.705Z,22.28
2019-05-28T10:25:45.204Z,22.17
2019-05-28T10:26:45.181Z,21.64
2019-05-28T10:27:59.991Z,21.46
2019-05-28T10:28:49.640Z,21.12
2019-05-28T10:29:45.161Z,21.39
2019-05-28T10:30:45.149Z,21.72
2019-05-28T10:31:45.136Z,20.93
2019-05-28T10:32:45.136Z,20.85
2019-05-28T10:33:45.113Z,20.72
2019-05-28T10:35:02.550Z,20.24
2019-05-28T10:35:46.099Z,19.94
2019-05-28T10:36:45.086Z,19.71
2019-05-28T10:37:45.131Z,19.54
2019-05-28T10:38:45.061Z,19.81
2019-05-28T10:39:45.047Z,20.09
2019-05-28T10:40:45.039Z,20.32
2019-05-28T10:41:45.041Z,20.10
2019-05-28T10:42:45.018Z,19.73
2019-05-28T10:43:45.032Z,19.55
2019-05-28T10:44:45.383Z,19.52
2019-05-28T10:45:45.476Z,19.82
2019-05-28T10:46:44.977Z,19.81
2019-05-28T10:47:44.983Z,19.99
2019-05-28T10:48:44.976Z,20.44
2019-05-28T10:49:44.934Z,20.34
2019-05-28T10:50:44.925Z,19.52
2019-05-28T10:51:44.938Z,19.70
2019-05-28T10:52:44.928Z,20.00
2019-05-28T10:53:44.946Z,20.60
2019-05-28T10:54:44.901Z,21.15
2019-05-28T10:55:44.870Z,21.72
2019-05-28T10:56:44.864Z,21.80
2019-05-28T10:57:44.858Z,21.79
2019-05-28T10:58:44.836Z,21.45
2019-05-28T10:59:44.867Z,21.57
2019-05-28T11:00:44.832Z,21.55
2019-05-28T11:01:44.813Z,21.62
2019-05-28T11:02:44.800Z,21.36
2019-05-28T11:03:47.098Z,21.70
2019-05-28T11:04:44.857Z,21.95
2019-05-28T11:05:44.773Z,21.82
2019-05-28T11:06:51.743Z,21.73
2019-05-28T11:07:45.746Z,22.00
2019-05-28T11:08:44.728Z,22.78
2019-05-28T11:09:44.746Z,22.66
2019-05-28T11:10:44.747Z,23.40
2019-05-28T11:11:44.706Z,23.06
2019-05-28T11:12:44.686Z,22.75
2019-05-28T11:13:53.043Z,23.08
2019-05-28T11:14:45.682Z,22.39
2019-05-28T11:15:44.698Z,22.20
2019-05-28T11:16:44.657Z,21.70
2019-05-28T11:17:44.687Z,21.05
2019-05-28T11:18:44.653Z,20.70
2019-05-28T11:19:44.617Z,20.95
2019-05-28T11:20:44.653Z,21.83
2019-05-28T11:21:44.609Z,22.38
2019-05-28T11:22:44.625Z,22.22
2019-05-28T11:23:44.606Z,21.79
2019-05-28T11:24:44.599Z,21.66
2019-05-28T11:25:44.565Z,22.38
2019-05-28T11:26:44.592Z,22.06
2019-05-28T11:27:44.541Z,22.99
2019-05-28T11:28:44.544Z,22.87
2019-05-28T11:29:44.539Z,22.88
2019-05-28T11:30:44.532Z,23.41
2019-05-28T11:31:44.544Z,22.65
2019-05-28T11:32:46.297Z,22.72
2019-05-28T11:33:44.481Z,22.72
2019-05-28T11:34:44.495Z,21.89
2019-05-28T11:35:44.449Z,22.20
2019-05-28T11:36:44.482Z,22.93
2019-05-28T11:37:44.475Z,23.18
2019-05-28T11:38:44.442Z,22.63
2019-05-28T11:39:44.419Z,21.93
2019-05-28T11:40:44.414Z,22.00
2019-05-28T11:41:44.399Z,21.14
2019-05-28T11:42:44.408Z,20.82
2019-05-28T11:43:44.383Z,20.77
2019-05-28T11:44:44.380Z,20.77
2019-05-28T11:45:44.393Z,21.25
2019-05-28T11:46:44.363Z,22.53
2019-05-28T11:47:44.818Z,22.45
2019-05-28T11:48:44.329Z,22.30
2019-05-28T11:49:44.316Z,21.83
2019-05-28T11:50:44.323Z,21.48
2019-05-28T11:51:44.302Z,21.21
2019-05-28T11:52:44.299Z,21.55
2019-05-28T11:53:44.267Z,21.66
2019-05-28T11:54:44.280Z,20.99
2019-05-28T11:55:44.257Z,20.63
2019-05-28T11:56:44.235Z,20.37
2019-05-28T11:57:44.287Z,20.51
2019-05-28T11:58:44.211Z,20.87
2019-05-28T11:59:44.220Z,20.82
2019-05-28T12:00:44.225Z,21.09
2019-05-28T12:01:44.217Z,21.09
2019-05-28T12:02:44.199Z,20.80
2019-05-28T12:03:44.202Z,20.66
2019-05-28T12:04:44.159Z,20.92
2019-05-28T12:05:44.152Z,21.15
2019-05-28T12:06:44.137Z,21.25
2019-05-28T12:07:44.116Z,20.87
2019-05-28T12:08:44.169Z,20.74
2019-05-28T12:09:44.104Z,20.78
2019-05-28T12:10:44.105Z,20.92
2019-05-28T12:11:44.130Z,21.03
2019-05-28T12:12:44.088Z,20.85
2019-05-28T12:13:44.094Z,20.43
2019-05-28T12:14:44.108Z,20.14
2019-05-28T12:15:44.053Z,20.02
2019-05-28T12:16:44.090Z,19.63
2019-05-28T12:17:45.465Z,20.03
2019-05-28T12:18:44.053Z,19.67
2019-05-28T12:19:44.010Z,19.85
2019-05-28T12:20:44.021Z,19.96
2019-05-28T12:21:44.008Z,19.73
2019-05-28T12:22:44.085Z,19.85
2019-05-28T12:23:43.986Z,20.02
2019-05-28T12:24:43.990Z,19.84
2019-05-28T12:25:43.943Z,19.89
2019-05-28T12:26:43.947Z,19.81
2019-05-28T12:27:43.913Z,19.73
2019-05-28T12:28:43.932Z,19.95
2019-05-28T12:29:51.750Z,19.91
2019-05-28T12:30:44.879Z,19.88
2019-05-28T12:31:43.891Z,19.29
2019-05-28T12:32:43.878Z,19.58
2019-05-28T12:33:43.883Z,19.63
2019-05-28T12:34:43.873Z,19.27
2019-05-28T12:35:43.891Z,19.18
2019-05-28T12:36:43.843Z,19.26
2019-05-28T12:37:49.362Z,18.81
2019-05-28T12:38:44.819Z,18.73
2019-05-28T12:39:43.836Z,18.86
2019-05-28T12:40:48.017Z,18.93
2019-05-28T12:41:43.773Z,19.14
2019-05-28T12:42:43.756Z,19.37
2019-05-28T12:43:43.769Z,19.36
2019-05-28T12:44:43.758Z,19.63
2019-05-28T12:45:44.053Z,19.73
2019-05-28T12:46:43.847Z,19.76
2019-05-28T12:47:44.823Z,19.29
2019-05-28T12:48:43.678Z,19.07
2019-05-28T12:49:43.675Z,18.96
2019-05-28T12:50:43.686Z,19.07
2019-05-28T12:51:43.898Z,19.09
2019-05-28T12:52:46.982Z,19.04